Aktuální počasí v Tlučné 

Teplota 2.9 °C
Minimální teplota 2.8 °C Maximální teplota 2.9 °C
Teplota rosného bodu 1.6 °C Pocitová teplota 2.9 °C
Tlak 1017.6 hPa
Směr a rychlost větru  0 m/s
» 1.0 m/s
vlhkost 91.0 %
Teplota 0.0  mm/h
SlunceUV0.855 dnes zítra
↑ 07:49 ↑ 07:47
↓ 16:49 ↓ 16:51
   
Měsíc dnes zítra
↑ 11:15 ↓ 00:50
↑ 11:43
   
Historie naměřených hodnot
 
  LKLN Metar
  LKLN Metar
2018/01/23 23:00
LKLN 232300Z AUTO 20006KT 9999 OVC035 04/02 Q1025
Rychlost a směr větru 200°
11.1 km/h
--
10 km
32805.1 ft
Zataženo (1067 m)
Teplota 4 °C
Rosný bod 2°C
 
Tlak 1025 hPa
768.8 mmHg
 
  YR.no meteogram
  YR.no meteogram
Meteogram YR.no
  Kalendář alergenů
  Kalendář alergenů
kalendar
  IN-Pocasi.cz
  IN-Pocasi.cz
In-Pocasi logo




  PocasiIdnes     CHMI     MeteoPress     Radar     Radar2  


  Valid XHTML 1.0 Transitional  


Provozni a servisni denik

Popis

ČKD / FAQ